createdAt,value
2022-09-24T00:02:24.503Z,6.03
2022-09-24T00:04:51.100Z,6.30
2022-09-24T00:07:17.656Z,7.87
2022-09-24T00:09:44.261Z,9.27
2022-09-24T00:12:13.355Z,7.37
2022-09-24T00:14:40.110Z,6.77
2022-09-24T00:17:06.657Z,4.40
2022-09-24T00:19:33.252Z,6.40
2022-09-24T00:21:59.863Z,5.00
2022-09-24T00:24:45.069Z,4.30
2022-09-24T00:27:11.711Z,4.28
2022-09-24T00:29:38.306Z,4.33
2022-09-24T00:32:05.268Z,4.57
2022-09-24T00:34:31.850Z,5.60
2022-09-24T00:36:59.268Z,6.00
2022-09-24T00:39:25.857Z,5.20
2022-09-24T00:41:52.410Z,4.53
2022-09-24T00:44:40.947Z,4.27
2022-09-24T00:47:16.656Z,4.20
2022-09-24T00:49:43.287Z,4.50
2022-09-24T00:52:09.924Z,3.70
2022-09-24T00:54:37.377Z,4.23
2022-09-24T00:57:04.173Z,4.40
2022-09-24T00:59:30.777Z,4.27
2022-09-24T01:01:59.385Z,4.07
2022-09-24T01:04:27.206Z,4.77
2022-09-24T01:06:53.780Z,5.13
2022-09-24T01:09:20.424Z,5.03
2022-09-24T01:11:49.921Z,4.47
2022-09-24T01:14:54.619Z,4.93
2022-09-24T01:17:49.798Z,4.40
2022-09-24T01:21:06.312Z,4.43
2022-09-24T01:23:49.230Z,4.38
2022-09-24T01:26:22.002Z,5.47
2022-09-24T01:29:02.709Z,6.30
2022-09-24T01:31:32.170Z,7.33
2022-09-24T01:33:59.683Z,7.33
2022-09-24T01:36:26.246Z,7.03
2022-09-24T01:38:52.848Z,5.70
2022-09-24T01:41:19.452Z,5.97
2022-09-24T01:43:46.025Z,5.67
2022-09-24T01:46:13.059Z,5.43
2022-09-24T01:48:40.256Z,5.47
2022-09-24T01:51:23.618Z,5.87
2022-09-24T01:53:53.835Z,5.53
2022-09-24T01:56:35.234Z,5.93
2022-09-24T01:59:10.343Z,6.70
2022-09-24T02:01:40.826Z,6.43
2022-09-24T02:04:12.390Z,5.30
2022-09-24T02:07:04.731Z,7.83
2022-09-24T02:09:43.007Z,6.00
2022-09-24T02:12:20.993Z,5.80
2022-09-24T02:14:54.426Z,6.70
2022-09-24T02:17:24.665Z,4.57
2022-09-24T02:19:51.271Z,6.80
2022-09-24T02:22:17.855Z,5.60
2022-09-24T02:24:44.427Z,5.73
2022-09-24T02:27:10.982Z,11.93
2022-09-24T02:29:37.543Z,13.73
2022-09-24T02:32:04.130Z,8.23
2022-09-24T02:34:36.938Z,7.70
2022-09-24T02:37:08.866Z,6.87
2022-09-24T02:39:36.320Z,7.27
2022-09-24T02:42:05.604Z,6.90
2022-09-24T02:44:33.017Z,10.80
2022-09-24T02:46:59.899Z,13.73
2022-09-24T02:49:26.643Z,12.83
2022-09-24T02:51:53.241Z,9.30
2022-09-24T02:54:19.944Z,8.20
2022-09-24T02:56:46.501Z,7.40
2022-09-24T02:59:13.091Z,9.90
2022-09-24T03:01:39.792Z,9.50
2022-09-24T03:04:06.813Z,8.70
2022-09-24T03:06:33.489Z,10.00
2022-09-24T03:09:03.398Z,10.37
2022-09-24T03:11:31.481Z,9.93
2022-09-24T03:13:58.099Z,9.50
2022-09-24T03:16:24.784Z,9.37
2022-09-24T03:18:51.405Z,11.40
2022-09-24T03:21:19.800Z,9.63
2022-09-24T03:23:46.647Z,8.70
2022-09-24T03:26:13.211Z,9.80
2022-09-24T03:28:39.796Z,9.20
2022-09-24T03:31:06.518Z,8.67
2022-09-24T03:33:37.878Z,7.90
2022-09-24T03:36:08.253Z,8.23
2022-09-24T03:38:35.181Z,8.07
2022-09-24T03:41:02.030Z,7.13
2022-09-24T03:43:28.756Z,7.23
2022-09-24T03:45:55.442Z,7.63
2022-09-24T03:48:22.547Z,7.33
2022-09-24T03:50:49.369Z,6.87
2022-09-24T03:53:16.345Z,7.53
2022-09-24T03:55:47.202Z,7.80
2022-09-24T03:58:14.913Z,7.00
2022-09-24T04:00:42.364Z,5.63
2022-09-24T04:03:09.160Z,6.37
2022-09-24T04:05:36.174Z,6.47
2022-09-24T04:08:03.075Z,7.03
2022-09-24T04:10:29.761Z,7.00
2022-09-24T04:12:56.370Z,6.63
2022-09-24T04:15:23.467Z,5.93
2022-09-24T04:17:51.695Z,6.63
2022-09-24T04:20:22.311Z,7.70
2022-09-24T04:22:53.894Z,7.93
2022-09-24T04:25:20.784Z,10.77
2022-09-24T04:27:47.574Z,6.30
2022-09-24T04:30:14.545Z,7.80
2022-09-24T04:32:41.571Z,14.73
2022-09-24T04:35:08.753Z,8.47
2022-09-24T04:37:35.576Z,6.17
2022-09-24T04:40:03.755Z,6.47
2022-09-24T04:42:30.394Z,5.70
2022-09-24T04:44:56.967Z,7.87
2022-09-24T04:47:26.338Z,12.43
2022-09-24T04:49:53.012Z,12.73
2022-09-24T04:52:19.590Z,14.63
2022-09-24T04:54:47.297Z,11.93
2022-09-24T04:57:14.765Z,9.43
2022-09-24T04:59:41.673Z,7.50
2022-09-24T05:02:09.780Z,6.80
2022-09-24T05:04:37.368Z,6.83
2022-09-24T05:07:04.372Z,6.87
2022-09-24T05:09:33.757Z,6.37
2022-09-24T05:12:00.378Z,6.23
2022-09-24T05:14:27.045Z,7.17
2022-09-24T05:16:53.813Z,6.30
2022-09-24T05:19:21.175Z,6.10
2022-09-24T05:21:47.797Z,6.80
2022-09-24T05:24:14.394Z,5.57
2022-09-24T05:26:59.558Z,5.33
2022-09-24T05:29:26.219Z,5.75
2022-09-24T05:31:52.878Z,5.07
2022-09-24T05:34:19.544Z,5.93
2022-09-24T05:36:46.167Z,5.80
2022-09-24T05:39:15.537Z,6.60
2022-09-24T05:41:43.592Z,13.57
2022-09-24T05:44:11.301Z,13.33
2022-09-24T05:46:38.310Z,8.93
2022-09-24T05:49:05.039Z,7.50
2022-09-24T05:51:31.673Z,6.80
2022-09-24T05:53:58.262Z,7.10
2022-09-24T05:56:24.903Z,6.73
2022-09-24T05:58:51.503Z,6.90
2022-09-24T06:01:18.216Z,7.13
2022-09-24T06:03:44.815Z,7.20
2022-09-24T06:06:12.123Z,8.17
2022-09-24T06:08:38.795Z,7.97
2022-09-24T06:11:06.654Z,14.83
2022-09-24T06:13:35.037Z,17.63
2022-09-24T06:16:07.518Z,10.97
2022-09-24T06:18:35.167Z,9.17
2022-09-24T06:21:03.776Z,10.40
2022-09-24T06:23:31.061Z,9.50
2022-09-24T06:25:58.252Z,11.20
2022-09-24T06:28:27.554Z,9.47
2022-09-24T06:30:54.301Z,7.75
2022-09-24T06:33:21.165Z,9.07
2022-09-24T06:35:48.453Z,9.60
2022-09-24T06:38:16.376Z,8.02
2022-09-24T06:40:43.730Z,8.23
2022-09-24T06:43:10.876Z,7.68
2022-09-24T06:45:37.541Z,7.57
2022-09-24T06:48:04.821Z,7.60
2022-09-24T06:50:32.219Z,7.85
2022-09-24T06:52:58.803Z,7.35
2022-09-24T06:55:25.441Z,8.02
2022-09-24T06:58:04.882Z,9.00
2022-09-24T07:00:31.674Z,10.10
2022-09-24T07:02:58.283Z,12.70
2022-09-24T07:05:24.983Z,9.70
2022-09-24T07:07:51.626Z,7.90
2022-09-24T07:10:25.810Z,9.02
2022-09-24T07:12:52.415Z,8.23
2022-09-24T07:15:19.022Z,10.80
2022-09-24T07:17:45.707Z,7.63
2022-09-24T07:20:12.407Z,6.82
2022-09-24T07:22:43.118Z,5.95
2022-09-24T07:25:15.020Z,7.43
2022-09-24T07:28:28.454Z,7.10
2022-09-24T07:30:59.548Z,6.80
2022-09-24T07:33:26.293Z,7.10
2022-09-24T07:35:52.847Z,6.93
2022-09-24T07:38:20.012Z,6.63
2022-09-24T07:40:46.670Z,7.72
2022-09-24T07:43:14.307Z,6.75
2022-09-24T07:45:41.584Z,7.15
2022-09-24T07:48:09.048Z,9.23
2022-09-24T07:50:40.341Z,9.27
2022-09-24T07:53:06.983Z,8.60
2022-09-24T07:55:39.437Z,8.10
2022-09-24T07:58:22.358Z,8.68
2022-09-24T08:00:49.087Z,9.20
2022-09-24T08:03:15.659Z,7.68
2022-09-24T08:05:45.335Z,14.45
2022-09-24T08:08:12.104Z,50.08
2022-09-24T08:10:38.669Z,9.10
2022-09-24T08:13:05.255Z,6.95
2022-09-24T08:15:31.842Z,5.97
2022-09-24T08:18:04.780Z,5.18
2022-09-24T08:20:32.450Z,5.35
2022-09-24T08:23:03.142Z,4.70
2022-09-24T08:25:29.846Z,4.65
2022-09-24T08:27:56.557Z,5.20
2022-09-24T08:30:23.151Z,4.40
2022-09-24T08:32:49.878Z,4.97
2022-09-24T08:35:16.744Z,4.72
2022-09-24T08:37:43.374Z,3.20
2022-09-24T08:40:23.916Z,3.28
2022-09-24T08:43:12.336Z,3.40
2022-09-24T08:46:05.558Z,3.38
2022-09-24T08:48:34.425Z,3.33
2022-09-24T08:51:03.377Z,2.67
2022-09-24T08:53:42.680Z,2.67
2022-09-24T08:56:09.275Z,2.67
2022-09-24T08:58:44.941Z,2.60
2022-09-24T09:01:11.514Z,3.30
2022-09-24T09:04:05.107Z,3.88
2022-09-24T09:06:43.903Z,2.25
2022-09-24T09:09:18.308Z,2.30
2022-09-24T09:11:47.799Z,2.67
2022-09-24T09:14:18.709Z,2.50
2022-09-24T09:16:57.571Z,2.25
2022-09-24T09:19:26.842Z,2.30
2022-09-24T09:21:57.028Z,2.28
2022-09-24T09:25:03.506Z,2.00
2022-09-24T09:27:31.004Z,2.30
2022-09-24T09:29:59.210Z,2.28
2022-09-24T09:33:03.312Z,2.20
2022-09-24T09:35:43.292Z,2.00
2022-09-24T09:38:12.964Z,2.40
2022-09-24T09:40:44.095Z,2.42
2022-09-24T09:43:12.773Z,2.20
2022-09-24T09:45:56.316Z,2.05
2022-09-24T09:48:24.241Z,2.00
2022-09-24T09:50:51.398Z,1.88
2022-09-24T09:53:25.018Z,2.20
2022-09-24T09:55:56.063Z,2.40
2022-09-24T09:58:24.587Z,2.10
2022-09-24T10:00:51.217Z,2.42
2022-09-24T10:03:26.199Z,2.20
2022-09-24T10:05:58.592Z,2.10
2022-09-24T10:08:26.492Z,2.17
2022-09-24T10:10:57.458Z,2.55
2022-09-24T10:13:24.351Z,2.28
2022-09-24T10:15:51.698Z,2.28
2022-09-24T10:18:23.051Z,2.53
2022-09-24T10:20:49.895Z,2.15
2022-09-24T10:23:21.188Z,2.17
2022-09-24T10:25:52.379Z,2.30
2022-09-24T10:28:38.365Z,3.63
2022-09-24T10:31:12.518Z,2.10
2022-09-24T10:33:40.503Z,1.92
2022-09-24T10:36:13.525Z,1.77
2022-09-24T10:38:40.094Z,1.70
2022-09-24T10:41:27.590Z,1.98
2022-09-24T10:43:54.950Z,1.73
2022-09-24T10:46:28.690Z,2.10
2022-09-24T10:49:46.449Z,2.00
2022-09-24T10:52:30.450Z,1.70
2022-09-24T10:55:15.850Z,2.05
2022-09-24T10:58:03.018Z,2.00
2022-09-24T11:00:41.193Z,2.10
2022-09-24T11:03:26.085Z,2.17
2022-09-24T11:05:54.025Z,2.15
2022-09-24T11:08:52.905Z,2.50
2022-09-24T11:11:31.947Z,2.63
2022-09-24T11:14:20.913Z,2.58
2022-09-24T11:17:03.254Z,2.35
2022-09-24T11:19:36.707Z,2.60
2022-09-24T11:22:42.219Z,2.38
2022-09-24T11:25:24.545Z,3.13
2022-09-24T11:28:13.321Z,2.90
2022-09-24T11:31:13.916Z,3.45
2022-09-24T11:33:43.583Z,2.58
2022-09-24T11:36:22.320Z,2.63
2022-09-24T11:38:48.797Z,2.95
2022-09-24T11:41:53.041Z,2.60
2022-09-24T11:44:32.998Z,2.80
2022-09-24T11:47:27.459Z,3.20
2022-09-24T11:50:33.573Z,3.10
2022-09-24T11:53:03.015Z,2.72
2022-09-24T11:55:34.995Z,2.40
2022-09-24T11:58:18.131Z,2.85
2022-09-24T12:00:49.510Z,2.85
2022-09-24T12:04:05.471Z,3.08
2022-09-24T12:06:35.866Z,2.30
2022-09-24T12:09:39.852Z,3.10
2022-09-24T12:12:09.112Z,2.97
2022-09-24T12:15:01.597Z,2.38
2022-09-24T12:17:49.128Z,2.75
2022-09-24T12:20:45.265Z,2.83
2022-09-24T12:23:13.400Z,3.17
2022-09-24T12:25:45.299Z,2.47
2022-09-24T12:28:35.755Z,2.30
2022-09-24T12:31:21.751Z,2.58
2022-09-24T12:34:01.618Z,2.60
2022-09-24T12:36:31.126Z,2.78
2022-09-24T12:39:02.705Z,2.60
2022-09-24T12:41:33.103Z,2.38
2022-09-24T12:44:11.805Z,3.30
2022-09-24T12:46:43.076Z,2.38
2022-09-24T12:49:24.947Z,2.50
2022-09-24T12:51:59.627Z,2.17
2022-09-24T12:54:36.759Z,2.50
2022-09-24T12:57:26.424Z,2.33
2022-09-24T12:59:56.966Z,2.40
2022-09-24T13:02:33.552Z,2.65
2022-09-24T13:05:03.562Z,2.60
2022-09-24T13:07:37.217Z,2.40
2022-09-24T13:10:17.343Z,2.80
2022-09-24T13:12:44.782Z,2.80
2022-09-24T13:15:28.143Z,2.97
2022-09-24T13:18:07.017Z,2.30
2022-09-24T13:20:33.639Z,2.70
2022-09-24T13:23:31.523Z,2.97
2022-09-24T13:25:59.234Z,2.40
2022-09-24T13:28:37.815Z,2.70
2022-09-24T13:31:25.958Z,2.83
2022-09-24T13:34:18.946Z,2.38
2022-09-24T13:37:04.477Z,2.88
2022-09-24T13:39:35.914Z,2.75
2022-09-24T13:42:33.235Z,2.45
2022-09-24T13:45:03.326Z,2.63
2022-09-24T13:47:43.723Z,2.60
2022-09-24T13:50:16.729Z,2.80
2022-09-24T13:52:53.724Z,2.70
2022-09-24T13:55:34.901Z,2.50
2022-09-24T13:58:01.477Z,2.42
2022-09-24T14:00:29.286Z,3.00
2022-09-24T14:03:03.550Z,2.70
2022-09-24T14:05:39.328Z,2.90
2022-09-24T14:08:12.430Z,2.97
2022-09-24T14:10:40.060Z,3.00
2022-09-24T14:13:21.801Z,2.80
2022-09-24T14:15:58.610Z,2.80
2022-09-24T14:18:26.668Z,2.60
2022-09-24T14:20:57.741Z,2.72
2022-09-24T14:23:25.099Z,3.05
2022-09-24T14:25:51.693Z,2.88
2022-09-24T14:28:18.293Z,2.63
2022-09-24T14:31:03.080Z,2.70
2022-09-24T14:33:31.230Z,2.85
2022-09-24T14:35:57.985Z,3.00
2022-09-24T14:38:35.340Z,2.95
2022-09-24T14:41:16.058Z,2.92
2022-09-24T14:43:53.807Z,2.50
2022-09-24T14:46:27.961Z,13.63
2022-09-24T14:49:27.745Z,5.78
2022-09-24T14:52:04.187Z,2.85
2022-09-24T14:54:38.117Z,3.20
2022-09-24T14:57:19.880Z,2.97
2022-09-24T14:59:46.777Z,3.13
2022-09-24T15:02:29.711Z,3.05
2022-09-24T15:05:03.251Z,2.75
2022-09-24T15:07:32.595Z,2.47
2022-09-24T15:10:00.020Z,3.25
2022-09-24T15:12:31.093Z,3.63
2022-09-24T15:15:00.010Z,3.10
2022-09-24T15:17:34.191Z,3.35
2022-09-24T15:20:01.146Z,3.17
2022-09-24T15:22:28.981Z,3.10
2022-09-24T15:25:01.161Z,3.70
2022-09-24T15:27:31.203Z,3.30
2022-09-24T15:30:01.276Z,3.47
2022-09-24T15:32:29.148Z,2.92
2022-09-24T15:34:57.790Z,3.00
2022-09-24T15:37:25.860Z,3.10
2022-09-24T15:39:53.334Z,3.10
2022-09-24T15:42:21.608Z,3.38
2022-09-24T15:44:48.201Z,2.85
2022-09-24T15:47:18.927Z,3.65
2022-09-24T15:49:45.590Z,3.03
2022-09-24T15:52:24.207Z,3.20
2022-09-24T15:54:51.726Z,3.08
2022-09-24T15:57:18.436Z,6.22
2022-09-24T15:59:45.038Z,8.90
2022-09-24T16:02:32.632Z,3.30
2022-09-24T16:05:03.545Z,3.20
2022-09-24T16:07:30.618Z,2.83
2022-09-24T16:09:57.236Z,2.75
2022-09-24T16:12:28.030Z,3.30
2022-09-24T16:14:58.995Z,3.58
2022-09-24T16:17:26.181Z,3.38
2022-09-24T16:19:52.911Z,3.20
2022-09-24T16:22:20.689Z,3.15
2022-09-24T16:24:47.517Z,3.70
2022-09-24T16:27:14.123Z,3.25
2022-09-24T16:29:40.738Z,3.50
2022-09-24T16:32:07.342Z,3.05
2022-09-24T16:34:34.528Z,3.60
2022-09-24T16:37:01.146Z,3.33
2022-09-24T16:39:27.736Z,3.83
2022-09-24T16:41:54.518Z,4.78
2022-09-24T16:44:21.227Z,4.63
2022-09-24T16:46:47.842Z,4.63
2022-09-24T16:49:15.247Z,4.10
2022-09-24T16:51:41.996Z,5.60
2022-09-24T16:54:08.687Z,4.20
2022-09-24T16:56:35.306Z,4.35
2022-09-24T16:59:01.962Z,3.67
2022-09-24T17:01:28.677Z,6.60
2022-09-24T17:03:56.183Z,9.70
2022-09-24T17:06:24.469Z,16.05
2022-09-24T17:09:11.481Z,21.92
2022-09-24T17:11:40.241Z,21.08
2022-09-24T17:14:07.985Z,20.92
2022-09-24T17:16:39.289Z,19.92
2022-09-24T17:19:08.007Z,22.58
2022-09-24T17:21:35.473Z,10.68
2022-09-24T17:24:02.338Z,11.63
2022-09-24T17:26:28.970Z,8.32
2022-09-24T17:28:55.749Z,11.50
2022-09-24T17:31:23.658Z,6.05
2022-09-24T17:34:01.317Z,11.32
2022-09-24T17:36:28.993Z,6.97
2022-09-24T17:38:56.603Z,11.05
2022-09-24T17:41:23.469Z,17.17
2022-09-24T17:43:50.043Z,17.30
2022-09-24T17:46:18.380Z,21.13
2022-09-24T17:48:46.067Z,21.83
2022-09-24T17:51:23.456Z,10.68
2022-09-24T17:53:51.380Z,8.80
2022-09-24T17:56:18.127Z,13.43
2022-09-24T17:58:46.931Z,21.77
2022-09-24T18:01:24.658Z,7.25
2022-09-24T18:03:55.282Z,14.65
2022-09-24T18:06:22.158Z,9.13
2022-09-24T18:08:48.755Z,6.80
2022-09-24T18:11:20.124Z,8.95
2022-09-24T18:13:53.114Z,13.35
2022-09-24T18:16:20.535Z,18.45
2022-09-24T18:18:49.217Z,14.77
2022-09-24T18:21:16.483Z,18.33
2022-09-24T18:23:43.078Z,31.90
2022-09-24T18:26:16.933Z,27.20
2022-09-24T18:28:49.520Z,43.83
2022-09-24T18:31:16.559Z,42.50
2022-09-24T18:33:43.915Z,31.50
2022-09-24T18:36:14.467Z,26.65
2022-09-24T18:38:41.123Z,17.88
2022-09-24T18:41:15.599Z,16.35
2022-09-24T18:43:42.273Z,15.95
2022-09-24T18:46:11.348Z,13.00
2022-09-24T18:48:38.870Z,17.42
2022-09-24T18:51:05.664Z,13.35
2022-09-24T18:53:32.277Z,11.75
2022-09-24T18:55:59.515Z,10.38
2022-09-24T18:58:26.147Z,11.27
2022-09-24T19:01:19.317Z,11.25
2022-09-24T19:03:46.020Z,12.57
2022-09-24T19:06:13.149Z,16.55
2022-09-24T19:08:40.042Z,15.27
2022-09-24T19:11:09.919Z,13.10
2022-09-24T19:13:51.656Z,12.93
2022-09-24T19:16:18.946Z,12.88
2022-09-24T19:18:45.655Z,11.57
2022-09-24T19:21:14.074Z,12.25
2022-09-24T19:23:46.185Z,10.25
2022-09-24T19:26:14.447Z,10.43
2022-09-24T19:28:41.323Z,11.43
2022-09-24T19:31:25.020Z,19.42
2022-09-24T19:33:52.352Z,19.67
2022-09-24T19:36:18.990Z,18.33
2022-09-24T19:38:45.740Z,16.98
2022-09-24T19:41:13.535Z,16.17
2022-09-24T19:43:41.053Z,13.68
2022-09-24T19:46:08.663Z,13.15
2022-09-24T19:48:43.259Z,14.35
2022-09-24T19:51:20.306Z,12.00
2022-09-24T19:53:51.315Z,12.27
2022-09-24T19:56:19.607Z,12.00
2022-09-24T19:58:47.150Z,10.75
2022-09-24T20:01:17.375Z,9.90
2022-09-24T20:03:44.508Z,9.63
2022-09-24T20:06:16.148Z,11.00
2022-09-24T20:08:42.847Z,9.63
2022-09-24T20:11:11.415Z,8.52
2022-09-24T20:13:46.406Z,8.35
2022-09-24T20:18:47.843Z,8.20
2022-09-24T20:21:16.285Z,8.00
2022-09-24T20:23:43.236Z,8.68
2022-09-24T20:26:29.338Z,8.77
2022-09-24T20:28:56.255Z,9.70
2022-09-24T20:31:22.917Z,9.43
2022-09-24T20:33:49.632Z,10.93
2022-09-24T20:36:20.729Z,9.95
2022-09-24T20:38:49.955Z,8.88
2022-09-24T20:41:18.120Z,11.13
2022-09-24T20:43:45.631Z,12.63
2022-09-24T20:46:17.439Z,14.70
2022-09-24T20:48:44.169Z,13.15
2022-09-24T20:51:14.591Z,14.35
2022-09-24T20:53:41.957Z,21.55
2022-09-24T20:56:09.351Z,15.70
2022-09-24T20:58:41.869Z,18.52
2022-09-24T21:01:09.238Z,23.85
2022-09-24T21:03:45.295Z,24.08
2022-09-24T21:06:12.565Z,22.30
2022-09-24T21:08:40.420Z,24.85
2022-09-24T21:11:11.769Z,26.90
2022-09-24T21:13:50.340Z,24.33
2022-09-24T21:16:24.720Z,21.25
2022-09-24T21:18:54.274Z,22.60
2022-09-24T21:21:22.669Z,20.45
2022-09-24T21:23:50.677Z,19.65
2022-09-24T21:26:37.832Z,13.55
2022-09-24T21:29:07.685Z,10.63
2022-09-24T21:31:34.538Z,16.17
2022-09-24T21:34:01.301Z,20.80
2022-09-24T21:36:29.460Z,19.33
2022-09-24T21:38:56.838Z,18.00
2022-09-24T21:41:24.779Z,14.60
2022-09-24T21:43:52.379Z,18.00
2022-09-24T21:46:33.284Z,18.80
2022-09-24T21:49:00.564Z,14.40
2022-09-24T21:51:27.478Z,13.10
2022-09-24T21:53:58.303Z,16.98
2022-09-24T21:56:25.044Z,14.73
2022-09-24T21:58:52.514Z,12.55
2022-09-24T22:01:21.011Z,12.93
2022-09-24T22:03:47.726Z,13.30
2022-09-24T22:06:15.109Z,12.65
2022-09-24T22:08:41.774Z,12.13
2022-09-24T22:11:08.932Z,13.32
2022-09-24T22:13:46.162Z,12.88
2022-09-24T22:16:15.491Z,12.45
2022-09-24T22:18:50.116Z,13.02
2022-09-24T22:21:20.196Z,13.73
2022-09-24T22:23:46.798Z,11.50
2022-09-24T22:26:14.765Z,12.20
2022-09-24T22:28:41.974Z,10.65
2022-09-24T22:31:10.089Z,9.68
2022-09-24T22:33:55.295Z,10.73
2022-09-24T22:36:22.052Z,11.77
2022-09-24T22:38:53.646Z,12.60
2022-09-24T22:41:20.251Z,12.85
2022-09-24T22:43:46.835Z,10.68
2022-09-24T22:46:14.190Z,10.52
2022-09-24T22:48:40.832Z,7.45
2022-09-24T22:51:07.564Z,8.20
2022-09-24T22:53:35.175Z,7.53
2022-09-24T22:56:08.290Z,7.25
2022-09-24T22:58:35.313Z,7.85
2022-09-24T23:01:09.640Z,7.35
2022-09-24T23:03:36.787Z,6.68
2022-09-24T23:06:06.217Z,7.50
2022-09-24T23:08:33.957Z,8.13
2022-09-24T23:11:19.511Z,13.65
2022-09-24T23:13:47.771Z,14.57
2022-09-24T23:16:15.051Z,12.82
2022-09-24T23:18:42.825Z,13.02
2022-09-24T23:21:10.854Z,12.07
2022-09-24T23:23:37.506Z,11.05
2022-09-24T23:26:16.190Z,11.55
2022-09-24T23:28:43.498Z,9.93
2022-09-24T23:31:14.581Z,11.90
2022-09-24T23:33:42.158Z,10.68
2022-09-24T23:36:09.945Z,14.73
2022-09-24T23:38:36.679Z,15.13
2022-09-24T23:41:03.713Z,18.08
2022-09-24T23:43:30.766Z,16.77
2022-09-24T23:45:57.475Z,15.40
2022-09-24T23:48:24.182Z,12.38
2022-09-24T23:50:51.288Z,11.77
2022-09-24T23:53:18.989Z,15.35
2022-09-24T23:55:47.074Z,15.13
2022-09-24T23:58:15.955Z,15.68
